Time;durP1;ratioP1;P1;durP2;ratioP2;P2;SDS_P1;SDS_P2;PMS_P1;PMS_P2;Temp;Humidity;BMP_temperature;BMP_pressure;BME280_temperature;BME280_humidity;BME280_pressure;Samples;Min_cycle;Max_cycle;Signal;HPM_P1;HPM_P2
2021/08/27 00:00:40;;;;;;;6.50;4.80;;;;;;;28.23;37.90;100278.77;112991;1217;60979;-85
2021/08/27 00:03:15;;;;;;;6.70;4.70;;;;;;;28.23;37.96;100278.58;112995;1218;63588;-85
2021/08/27 00:05:57;;;;;;;;;;;;;;;;;;;;;
2021/08/27 00:08:41;;;;;;;6.90;4.80;;;;;;;28.23;37.81;100278.75;112949;1218;60993;-86
2021/08/27 00:11:14;;;;;;;7.70;5.30;;;;;;;28.22;38.03;100278.81;112995;1217;61091;-85
2021/08/27 00:13:41;;;;;;;7.00;5.00;;;;;;;28.23;37.83;100278.20;112965;1210;63160;-86
2021/08/27 00:16:20;;;;;;;7.20;5.10;;;;;;;28.23;37.95;100280.00;112897;1216;65710;-81
2021/08/27 00:19:11;;;;;;;8.40;4.90;;;;;;;28.23;37.96;100283.59;112961;1218;60987;-84
2021/08/27 00:21:46;;;;;;;6.50;5.00;;;;;;;28.23;38.03;100295.36;112998;1217;59043;-85
2021/08/27 00:24:12;;;;;;;6.50;4.70;;;;;;;28.23;38.00;100301.33;112951;1213;64743;-89
2021/08/27 00:26:40;;;;;;;8.60;5.30;;;;;;;28.23;38.06;100303.17;112957;1210;61441;-86
2021/08/27 00:29:47;;;;;;;6.60;5.10;;;;;;;28.23;37.92;100305.13;112950;1212;61005;-84
2021/08/27 00:32:36;;;;;;;8.20;5.20;;;;;;;28.23;38.12;100301.00;112956;1212;61518;-87
2021/08/27 00:35:20;;;;;;;6.20;4.80;;;;;;;28.23;38.13;100303.38;112879;1210;63643;-86
2021/08/27 00:37:55;;;;;;;6.00;4.80;;;;;;;28.23;37.97;100299.25;112982;1210;65577;-84
2021/08/27 00:40:34;;;;;;;6.70;4.70;;;;;;;28.23;38.02;100302.05;112954;1217;60930;-87
2021/08/27 00:43:05;;;;;;;7.70;5.30;;;;;;;28.23;38.10;100295.95;112987;1218;60966;-82
2021/08/27 00:46:01;;;;;;;8.10;5.50;;;;;;;28.23;38.18;100287.30;112952;1212;62601;-83
2021/08/27 00:48:30;;;;;;;6.50;5.00;;;;;;;28.23;38.03;100282.74;112981;1218;65777;-88
2021/08/27 00:51:13;;;;;;;6.80;5.20;;;;;;;28.23;38.08;100282.37;112887;1213;60994;-84
2021/08/27 00:53:49;;;;;;;7.20;5.20;;;;;;;28.22;38.16;100275.17;112997;1217;61006;-84
2021/08/27 00:56:35;;;;;;;6.80;5.00;;;;;;;28.23;38.13;100270.98;112941;1210;64960;-84
2021/08/27 00:59:01;;;;;;;6.40;5.20;;;;;;;28.22;38.12;100273.00;112983;1217;66666;-85
2021/08/27 01:01:45;;;;;;;7.40;5.50;;;;;;;28.22;38.18;100275.02;112918;1218;60991;-86
2021/08/27 01:04:19;;;;;;;6.50;5.10;;;;;;;28.22;38.21;100274.84;112953;1210;60974;-86
2021/08/27 01:07:06;;;;;;;7.00;5.20;;;;;;;28.22;38.36;100277.38;112957;1212;64844;-85
2021/08/27 01:10:17;;;;;;;7.10;5.20;;;;;;;28.22;38.26;100276.14;112996;1217;65791;-84
2021/08/27 01:13:38;;;;;;;7.80;5.40;;;;;;;28.21;38.34;100276.92;112979;1217;60966;-84
2021/08/27 01:16:23;;;;;;;8.20;5.30;;;;;;;28.20;38.18;100271.25;113003;1218;61060;-84
2021/08/27 01:19:34;;;;;;;7.50;5.60;;;;;;;28.21;38.32;100268.17;112995;1218;63794;-89
2021/08/27 01:22:16;;;;;;;8.90;6.00;;;;;;;28.20;38.31;100263.29;112959;1217;65607;-86
2021/08/27 01:25:03;;;;;;;7.80;5.50;;;;;;;28.21;38.43;100261.02;112954;1213;61806;-85
2021/08/27 01:27:42;;;;;;;;;;;;;;;;;;;;;
2021/08/27 01:30:20;;;;;;;9.50;6.30;;;;;;;28.20;38.31;100260.95;112961;1218;65093;-85
2021/08/27 01:33:20;;;;;;;;;;;;;;;;;;;;;
2021/08/27 01:36:05;;;;;;;8.00;5.60;;;;;;;28.20;38.47;100257.92;112940;1219;61240;-88
2021/08/27 01:38:45;;;;;;;8.20;5.70;;;;;;;28.19;38.39;100258.49;112946;1218;61105;-84
2021/08/27 01:41:33;;;;;;;7.40;5.90;;;;;;;28.20;38.40;100263.71;112961;1218;64166;-83
2021/08/27 01:44:21;;;;;;;7.30;5.80;;;;;;;28.19;38.52;100263.99;112967;1210;66815;-81
2021/08/27 01:47:03;;;;;;;8.50;5.60;;;;;;;28.19;38.43;100253.89;112933;1218;60971;-86
2021/08/27 01:49:43;;;;;;;;;;;;;;;;;;;;;
2021/08/27 01:52:10;;;;;;;9.10;6.20;;;;;;;28.19;38.55;100247.14;112949;1210;63644;-86
2021/08/27 01:54:39;;;;;;;8.30;5.80;;;;;;;28.19;38.52;100251.34;112986;1217;60983;-87
2021/08/27 01:57:10;;;;;;;7.40;6.10;;;;;;;28.19;38.40;100248.42;112873;1212;61458;-89
2021/08/27 01:59:46;;;;;;;8.80;6.10;;;;;;;28.19;38.56;100246.08;112944;1212;60950;-85
2021/08/27 02:02:27;;;;;;;9.40;6.20;;;;;;;28.18;38.63;100243.27;112889;1218;63683;-85
2021/08/27 02:05:04;;;;;;;8.00;6.00;;;;;;;28.18;38.49;100244.22;112956;1210;67412;-87
2021/08/27 02:07:43;;;;;;;8.40;6.30;;;;;;;28.18;38.54;100243.13;112940;1212;60989;-90
2021/08/27 02:10:14;;;;;;;7.80;6.10;;;;;;;28.18;38.40;100242.62;113000;1218;61056;-83
2021/08/27 02:12:55;;;;;;;8.80;6.30;;;;;;;28.18;38.62;100240.07;112929;1213;64849;-88
2021/08/27 02:15:28;;;;;;;7.50;6.00;;;;;;;28.18;38.62;100242.98;112939;1212;66893;-87
2021/08/27 02:17:56;;;;;;;11.60;6.10;;;;;;;28.18;38.57;100240.99;112983;1217;60963;-86
2021/08/27 02:20:38;;;;;;;8.40;6.00;;;;;;;28.17;38.67;100238.00;112976;1210;60993;-89
2021/08/27 02:23:12;;;;;;;8.60;6.10;;;;;;;28.17;38.54;100239.80;112913;1213;62657;-83
2021/08/27 02:25:43;;;;;;;8.80;6.30;;;;;;;28.17;38.71;100239.85;112869;1213;66056;-85
2021/08/27 02:28:29;;;;;;;8.50;6.10;;;;;;;28.17;38.62;100240.39;112875;1213;60988;-87
2021/08/27 02:31:06;;;;;;;8.50;5.90;;;;;;;28.16;38.64;100240.99;112954;1213;60847;-89
2021/08/27 02:33:37;;;;;;;8.90;6.20;;;;;;;28.16;38.64;100238.83;112973;1210;63755;-90
2021/08/27 02:36:10;;;;;;;7.60;5.60;;;;;;;28.16;38.81;100240.83;112988;1218;65498;-87
2021/08/27 02:38:57;;;;;;;9.50;5.90;;;;;;;28.16;38.74;100241.20;113002;1218;60983;-87
2021/08/27 02:41:34;;;;;;;7.90;6.20;;;;;;;28.15;38.76;100243.81;112984;1217;61656;-89
2021/08/27 02:44:10;;;;;;;8.40;6.00;;;;;;;28.16;38.96;100237.98;112965;1217;72651;-86
2021/08/27 02:46:38;;;;;;;9.00;6.10;;;;;;;28.15;38.93;100237.53;112883;1213;66360;-89
2021/08/27 02:49:19;;;;;;;8.60;6.30;;;;;;;28.15;38.68;100240.96;113017;1210;60979;-91
2021/08/27 02:52:10;;;;;;;8.50;6.00;;;;;;;28.14;38.76;100244.79;112982;1218;60970;-84
2021/08/27 02:55:03;;;;;;;8.80;6.30;;;;;;;28.14;38.76;100248.84;112935;1218;64839;-86
2021/08/27 02:58:00;;;;;;;8.70;6.20;;;;;;;28.14;38.68;100250.12;112950;1213;65591;-84
2021/08/27 03:00:26;;;;;;;7.80;6.00;;;;;;;28.13;38.64;100253.61;112427;1215;60982;-87
2021/08/27 03:03:01;;;;;;;8.50;6.10;;;;;;;28.14;38.80;100255.86;112426;1215;61107;-85
2021/08/27 03:05:34;;;;;;;9.20;6.10;;;;;;;28.14;38.77;100261.52;112429;1223;64045;-87
2021/08/27 03:08:20;;;;;;;10.20;6.10;;;;;;;28.13;38.87;100266.27;112321;1219;66167;-85
2021/08/27 03:11:36;;;;;;;9.10;6.30;;;;;;;28.13;38.73;100271.01;112466;1223;61113;-86
2021/08/27 03:14:34;;;;;;;9.80;6.10;;;;;;;28.12;38.80;100269.83;112133;1218;60993;-83
2021/08/27 03:17:20;;;;;;;8.60;5.60;;;;;;;28.12;38.95;100273.98;112485;1216;63698;-85
2021/08/27 03:20:02;;;;;;;8.70;5.80;;;;;;;28.12;38.84;100278.86;112373;1223;67697;-90
2021/08/27 03:22:34;;;;;;;9.60;6.00;;;;;;;28.12;38.79;100279.83;112496;1216;61459;-84
2021/08/27 03:25:22;;;;;;;8.10;6.00;;;;;;;28.12;38.78;100276.70;112448;1216;61123;-86
2021/08/27 03:27:58;;;;;;;9.80;5.80;;;;;;;28.12;39.00;100277.98;112448;1216;64829;-87
2021/08/27 03:30:29;;;;;;;;;;;;;;;28.12;38.96;100278.55;112488;1216;65777;-88
2021/08/27 03:33:10;;;;;;;;;;;;;;;;;;;;;
2021/08/27 03:35:56;;;;;;;8.70;6.30;;;;;;;28.09;38.76;100282.98;112487;1215;60953;-83
2021/08/27 03:38:27;;;;;;;10.60;6.40;;;;;;;28.09;38.83;100282.08;112959;1218;63888;-84
2021/08/27 03:41:03;;;;;;;7.60;6.00;;;;;;;28.09;38.98;100284.41;112932;1218;65815;-88
2021/08/27 03:43:44;;;;;;;;;;;;;;;;;;;;;
2021/08/27 03:46:19;;;;;;;8.40;5.90;;;;;;;28.07;39.15;100283.70;112974;1211;61025;-89
2021/08/27 03:49:07;;;;;;;8.70;6.10;;;;;;;28.07;38.81;100284.27;112905;1219;63865;-85
2021/08/27 03:51:34;;;;;;;10.20;6.30;;;;;;;28.07;39.03;100285.15;112996;1218;65748;-85
2021/08/27 03:53:59;;;;;;;8.30;5.70;;;;;;;28.08;38.97;100287.83;112979;1218;60943;-84
2021/08/27 03:56:31;;;;;;;10.30;6.10;;;;;;;28.08;38.82;100286.88;112968;1218;61000;-86
2021/08/27 03:59:01;;;;;;;8.10;5.70;;;;;;;28.08;38.87;100287.25;112947;1212;64030;-84
2021/08/27 04:02:03;;;;;;;9.20;6.10;;;;;;;28.08;38.83;100285.83;112964;1218;64636;-85
2021/08/27 04:04:29;;;;;;;9.20;5.70;;;;;;;28.08;38.95;100292.14;112989;1217;61054;-86
2021/08/27 04:07:12;;;;;;;10.10;5.90;;;;;;;28.08;39.08;100300.98;112933;1217;60996;-87
2021/08/27 04:09:58;;;;;;;9.40;6.10;;;;;;;28.08;39.18;100308.72;112990;1217;63586;-87
2021/08/27 04:12:29;;;;;;;7.40;5.50;;;;;;;28.08;38.96;100314.90;112972;1217;66949;-85
2021/08/27 04:15:08;;;;;;;8.70;5.90;;;;;;;28.09;38.94;100318.88;113029;1217;61099;-85
2021/08/27 04:17:54;;;;;;;9.20;5.80;;;;;;;28.09;39.02;100324.02;112984;1210;61480;-87
2021/08/27 04:20:40;;;;;;;15.70;6.20;;;;;;;28.08;38.98;100326.50;113018;1217;65152;-85
2021/08/27 04:23:17;;;;;;;9.70;5.90;;;;;;;28.06;39.20;100322.70;113010;1217;66197;-86
2021/08/27 04:25:46;;;;;;;8.90;5.60;;;;;;;28.07;39.07;100323.95;112965;1210;60959;-86
2021/08/27 04:28:35;;;;;;;9.50;5.70;;;;;;;28.06;39.15;100330.13;112981;1217;60958;-86
2021/08/27 04:31:21;;;;;;;9.30;5.90;;;;;;;28.06;39.02;100339.25;113022;1217;63787;-83
2021/08/27 04:33:55;;;;;;;8.80;5.50;;;;;;;28.05;39.09;100340.94;113017;1217;66344;-86
2021/08/27 04:36:32;;;;;;;7.90;5.70;;;;;;;28.05;39.05;100338.57;113011;1217;61007;-90
2021/08/27 04:39:23;;;;;;;7.70;5.50;;;;;;;28.05;39.04;100342.23;112982;1210;61076;-83
2021/08/27 04:42:01;;;;;;;9.20;5.40;;;;;;;28.05;39.24;100347.11;112744;1214;64981;-83
2021/08/27 04:44:36;;;;;;;8.90;5.80;;;;;;;28.05;39.18;100346.77;112750;1214;65784;-85
2021/08/27 04:47:21;;;;;;;8.30;5.60;;;;;;;28.05;39.20;100346.42;112801;1213;58975;-85
2021/08/27 04:49:50;;;;;;;8.20;5.50;;;;;;;28.05;39.06;100347.86;112818;1213;61364;-85
2021/08/27 04:52:28;;;;;;;9.10;5.50;;;;;;;28.04;39.10;100347.52;112753;1217;63634;-88
2021/08/27 04:55:06;;;;;;;8.30;5.60;;;;;;;28.04;39.15;100347.38;112742;1213;66246;-88
2021/08/27 04:57:44;;;;;;;10.50;5.60;;;;;;;28.03;38.95;100347.23;112623;1214;61689;-88
2021/08/27 05:00:11;;;;;;;9.60;5.60;;;;;;;28.03;39.17;100349.82;112668;1213;60935;-88
2021/08/27 05:02:49;;;;;;;7.40;5.30;;;;;;;28.03;38.93;100349.82;112789;1213;63600;-85
2021/08/27 05:05:26;;;;;;;7.80;5.20;;;;;;;28.03;39.19;100353.27;112787;1213;66197;-88
2021/08/27 05:07:55;;;;;;;8.00;5.50;;;;;;;28.03;38.79;100356.02;112776;1221;60971;-83
2021/08/27 05:11:01;;;;;;;8.00;5.20;;;;;;;28.02;39.07;100352.63;112783;1220;60961;-85
2021/08/27 05:13:41;;;;;;;10.00;6.00;;;;;;;28.02;38.88;100347.75;112722;1221;64475;-84
2021/08/27 05:16:17;;;;;;;6.60;4.90;;;;;;;28.02;39.00;100349.41;112801;1220;66962;-84
2021/08/27 05:18:52;;;;;;;8.80;5.30;;;;;;;28.02;38.80;100349.04;112830;1213;60949;-81
2021/08/27 05:21:43;;;;;;;11.70;5.70;;;;;;;28.02;38.89;100353.95;112989;1217;60846;-83
2021/08/27 05:24:39;;;;;;;10.30;5.50;;;;;;;28.01;39.07;100356.92;112791;1220;63762;-85
2021/08/27 05:27:11;;;;;;;10.20;5.50;;;;;;;28.01;39.13;100351.70;112705;1213;66820;-86
2021/08/27 05:29:47;;;;;;;9.30;4.90;;;;;;;28.01;39.17;100347.49;112624;1216;61000;-89
2021/08/27 05:32:21;;;;;;;9.20;5.70;;;;;;;28.00;38.94;100340.89;112579;1213;61220;-84
2021/08/27 05:34:47;;;;;;;15.80;6.50;;;;;;;27.97;39.05;100334.92;112731;1213;64687;-87
2021/08/27 05:37:44;;;;;;;12.00;6.80;;;;;;;27.93;39.08;100336.38;112718;1212;64380;-83
2021/08/27 05:40:30;;;;;;;11.40;6.30;;;;;;;27.65;38.86;100335.24;112726;1221;61325;-83
2021/08/27 05:43:13;;;;;;;14.20;7.50;;;;;;;27.45;39.12;100335.61;112790;1213;61138;-87
2021/08/27 05:45:51;;;;;;;;;;;;;;;;;;;;;
2021/08/27 05:48:22;;;;;;;14.80;6.90;;;;;;;27.22;39.19;100332.30;112327;1216;65808;-83
2021/08/27 05:50:54;;;;;;;9.80;6.10;;;;;;;27.15;39.39;100328.05;112605;1213;61008;-82
2021/08/27 05:53:33;;;;;;;9.50;6.20;;;;;;;27.13;39.60;100327.88;112595;1213;62150;-87
2021/08/27 05:55:58;;;;;;;7.90;5.80;;;;;;;27.19;39.71;100332.52;112712;1213;63528;-83
2021/08/27 05:58:44;;;;;;;9.40;5.40;;;;;;;27.24;39.76;100338.64;112553;1221;66266;-92
2021/08/27 06:01:21;;;;;;;;;;;;;;;;;;;;;
2021/08/27 06:04:21;;;;;;;;;;;;;;;;;;;;;
2021/08/27 06:07:01;;;;;;;;;;;;;;;;;;;;;
2021/08/27 06:09:37;;;;;;;15.90;7.30;;;;;;;27.45;39.56;100356.55;112766;1213;65750;-83
2021/08/27 06:12:06;;;;;;;14.30;6.70;;;;;;;27.49;39.63;100354.34;112756;1213;61073;-86
2021/08/27 06:14:38;;;;;;;13.70;7.50;;;;;;;27.52;39.55;100350.39;112514;1213;61285;-86
2021/08/27 06:17:11;;;;;;;12.60;6.80;;;;;;;27.54;39.52;100350.19;112757;1212;63799;-86
2021/08/27 06:20:17;;;;;;;13.30;7.20;;;;;;;27.54;39.22;100349.03;112699;1219;67244;-88
2021/08/27 06:22:57;;;;;;;10.70;6.50;;;;;;;27.54;39.42;100350.13;112773;1219;60940;-86
2021/08/27 06:25:29;;;;;;;11.80;6.10;;;;;;;27.56;39.50;100353.17;112743;1213;60844;-84
2021/08/27 06:28:04;;;;;;;9.20;6.10;;;;;;;27.59;39.21;100351.20;112775;1213;63773;-86
2021/08/27 06:30:50;;;;;;;9.20;6.10;;;;;;;27.62;39.32;100356.15;112703;1213;65668;-84
2021/08/27 06:33:33;;;;;;;10.90;6.80;;;;;;;27.63;39.37;100352.96;112698;1219;61100;-87
2021/08/27 06:36:14;;;;;;;14.70;7.10;;;;;;;27.64;39.37;100359.00;112754;1219;60981;-87
2021/08/27 06:38:44;;;;;;;12.40;7.00;;;;;;;27.65;39.11;100354.64;112941;1217;63528;-89
2021/08/27 06:41:27;;;;;;;;;;;;;;;;;;;;;
2021/08/27 06:43:56;;;;;;;9.90;6.90;;;;;;;27.67;39.35;100352.02;112990;1217;61041;-85
2021/08/27 06:46:43;;;;;;;9.80;6.30;;;;;;;27.68;39.22;100352.68;112984;1211;60956;-85
2021/08/27 06:49:18;;;;;;;12.50;6.20;;;;;;;27.67;39.08;100355.13;112860;1211;63730;-86
2021/08/27 06:52:09;;;;;;;11.30;6.20;;;;;;;27.67;39.34;100350.40;112912;1217;64680;-85
2021/08/27 06:54:41;;;;;;;9.00;6.60;;;;;;;27.69;39.18;100342.98;112945;1217;61116;-83
2021/08/27 06:57:18;;;;;;;11.50;6.40;;;;;;;27.70;39.12;100339.98;112795;1218;61085;-83
2021/08/27 07:00:00;;;;;;;11.40;6.20;;;;;;;27.71;39.23;100340.34;112933;1217;64874;-85
2021/08/27 07:02:28;;;;;;;11.40;6.90;;;;;;;27.72;39.14;100337.17;112948;1211;65797;-86
2021/08/27 07:04:57;;;;;;;9.90;6.40;;;;;;;27.72;39.13;100335.23;112949;1217;60940;-83
2021/08/27 07:07:52;;;;;;;12.30;6.10;;;;;;;27.72;39.08;100332.12;112901;1213;60936;-86
2021/08/27 07:10:18;;;;;;;10.90;6.40;;;;;;;27.74;39.06;100335.04;112834;1217;64569;-84
2021/08/27 07:13:03;;;;;;;10.60;6.70;;;;;;;27.75;38.98;100331.61;112892;1217;66868;-84
2021/08/27 07:15:39;;;;;;;;;;;;;;;;;;;;;
2021/08/27 07:18:26;;;;;;;9.40;6.60;;;;;;;27.79;39.34;100330.00;112894;1218;60984;-85
2021/08/27 07:20:58;;;;;;;9.60;7.20;;;;;;;27.81;39.24;100329.25;112924;1217;64972;-85
2021/08/27 07:23:37;;;;;;;12.70;7.50;;;;;;;27.82;39.20;100337.22;112831;1210;65642;-85
2021/08/27 07:26:03;;;;;;;14.00;7.10;;;;;;;27.84;39.09;100339.06;112718;1212;60974;-86
2021/08/27 07:28:29;;;;;;;11.20;6.70;;;;;;;27.85;39.25;100336.93;112713;1211;61060;-85
2021/08/27 07:30:57;;;;;;;13.20;7.60;;;;;;;27.87;39.21;100335.45;112687;1217;61069;-84
2021/08/27 07:33:23;;;;;;;11.40;6.80;;;;;;;27.88;39.09;100340.15;112859;1213;60961;-82
2021/08/27 07:35:52;;;;;;;8.70;5.90;;;;;;;27.89;39.13;100343.28;112830;1210;60986;-84
2021/08/27 07:38:18;;;;;;;12.60;8.30;;;;;;;27.91;39.10;100349.65;112927;1217;62662;-86
2021/08/27 07:40:49;;;;;;;13.20;7.50;;;;;;;27.92;39.27;100356.11;112833;1211;60971;-84
2021/08/27 07:43:17;;;;;;;10.40;6.60;;;;;;;27.91;39.21;100358.27;112867;1217;66933;-83
2021/08/27 07:45:48;;;;;;;11.50;6.90;;;;;;;27.92;39.28;100355.84;112943;1217;60987;-80
2021/08/27 07:48:16;;;;;;;10.00;5.90;;;;;;;27.93;39.26;100356.85;112957;1217;60993;-85
2021/08/27 07:50:44;;;;;;;9.50;6.40;;;;;;;27.94;39.15;100357.09;112584;1217;63413;-83
2021/08/27 07:53:19;;;;;;;10.00;6.70;;;;;;;27.96;38.99;100361.09;112865;1216;60987;-83
2021/08/27 07:55:54;;;;;;;11.20;6.70;;;;;;;27.96;38.95;100365.91;112943;1211;60977;-87
2021/08/27 07:58:20;;;;;;;10.70;6.80;;;;;;;27.98;39.14;100359.81;112934;1211;61001;-84
2021/08/27 08:01:09;;;;;;;9.20;6.50;;;;;;;27.97;38.93;100360.80;112880;1217;61339;-84
2021/08/27 08:03:45;;;;;;;13.20;6.90;;;;;;;27.96;38.96;100361.14;112930;1217;67169;-86
2021/08/27 08:06:19;;;;;;;9.90;6.30;;;;;;;27.96;38.93;100363.04;112867;1211;61057;-84
2021/08/27 08:09:05;;;;;;;8.20;6.20;;;;;;;27.98;38.93;100361.45;112849;1210;61158;-88
2021/08/27 08:11:33;;;;;;;9.60;6.50;;;;;;;27.99;38.94;100362.73;112496;1214;63543;-83
2021/08/27 08:13:59;;;;;;;13.00;6.80;;;;;;;27.99;39.03;100364.51;112287;1215;65620;-82
2021/08/27 08:16:25;;;;;;;13.70;6.20;;;;;;;27.99;38.83;100365.59;112290;1214;61029;-83
2021/08/27 08:18:51;;;;;;;10.60;6.70;;;;;;;27.99;38.64;100365.05;112629;1213;60968;-85
2021/08/27 08:21:20;;;;;;;9.10;6.20;;;;;;;28.00;38.90;100359.33;112551;1219;62410;-87
2021/08/27 08:23:57;;;;;;;12.40;6.70;;;;;;;28.00;38.97;100360.20;112588;1213;65649;-88
2021/08/27 08:26:35;;;;;;;10.90;6.50;;;;;;;27.99;38.71;100359.05;112690;1220;60962;-84
2021/08/27 08:29:21;;;;;;;12.30;6.60;;;;;;;27.97;38.67;100360.27;112709;1221;61096;-82
2021/08/27 08:31:47;;;;;;;9.20;6.20;;;;;;;27.94;38.67;100351.84;111975;1218;65022;-83
2021/08/27 08:34:13;;;;;;;10.20;5.90;;;;;;;27.94;38.64;100348.23;111846;1225;61800;-84
2021/08/27 08:36:47;;;;;;;7.90;6.00;;;;;;;27.94;38.69;100347.53;111872;1219;60983;-86
2021/08/27 08:39:22;;;;;;;13.90;6.40;;;;;;;27.94;38.35;100347.70;111858;1218;61085;-82
2021/08/27 08:41:48;;;;;;;9.90;6.40;;;;;;;27.94;38.27;100342.45;111943;1217;63812;-84
2021/08/27 08:44:23;;;;;;;7.40;5.70;;;;;;;27.95;38.42;100340.00;112042;1219;65852;-81
2021/08/27 08:47:09;;;;;;;;;;;;;;;;;;;;;
2021/08/27 08:49:38;;;;;;;7.80;5.60;;;;;;;27.96;38.38;100326.91;112026;1219;61033;-87
2021/08/27 08:52:19;;;;;;;12.30;6.50;;;;;;;27.96;38.28;100324.38;112015;1218;64836;-83
2021/08/27 08:54:58;;;;;;;9.90;5.90;;;;;;;27.96;38.57;100323.83;112014;1216;65687;-88
2021/08/27 08:57:26;;;;;;;8.10;5.80;;;;;;;27.96;38.36;100318.23;111885;1218;61241;-91
2021/08/27 09:00:01;;;;;;;10.70;6.20;;;;;;;27.96;38.22;100312.04;111881;1225;61031;-85
2021/08/27 09:02:28;;;;;;;12.00;6.00;;;;;;;27.97;38.17;100311.42;111997;1217;63618;-84
2021/08/27 09:05:03;;;;;;;8.20;6.20;;;;;;;27.98;38.13;100310.35;111871;1219;61297;-89
2021/08/27 09:07:35;;;;;;;8.30;5.40;;;;;;;27.99;38.30;100308.08;112048;1217;61543;-84
2021/08/27 09:10:17;;;;;;;9.30;5.80;;;;;;;28.01;38.30;100306.32;112001;1217;61140;-82
2021/08/27 09:13:03;;;;;;;8.00;6.10;;;;;;;28.01;38.22;100302.09;111922;1219;64868;-85
2021/08/27 09:15:44;;;;;;;9.00;6.30;;;;;;;28.02;38.29;100300.02;111931;1225;66684;-85
2021/08/27 09:18:34;;;;;;;9.80;5.90;;;;;;;28.03;38.30;100302.77;112096;1225;61368;-87
2021/08/27 09:21:05;;;;;;;9.80;5.90;;;;;;;28.04;38.32;100301.63;112069;1225;61018;-93
2021/08/27 09:24:19;;;;;;;7.20;5.70;;;;;;;28.05;38.34;100296.27;111978;1218;64872;-87
2021/08/27 09:27:08;;;;;;;10.10;6.20;;;;;;;28.05;38.38;100292.05;111680;1228;67449;-85
2021/08/27 09:30:02;;;;;;;7.40;5.70;;;;;;;28.06;38.36;100293.58;111577;1221;60989;-86
2021/08/27 09:32:38;;;;;;;7.90;5.70;;;;;;;28.08;38.54;100295.98;111737;1228;61034;-83
2021/08/27 09:35:30;;;;;;;11.00;5.90;;;;;;;28.09;38.19;100298.92;111734;1222;64360;-87
2021/08/27 09:37:58;;;;;;;9.30;5.50;;;;;;;28.09;38.35;100296.51;111744;1220;65731;-83
2021/08/27 09:40:49;;;;;;;7.80;5.60;;;;;;;28.10;38.31;100300.08;111720;1222;60945;-85
2021/08/27 09:43:35;;;;;;;9.20;6.20;;;;;;;28.11;38.27;100294.75;111720;1222;61158;-83
2021/08/27 09:46:06;;;;;;;10.70;5.90;;;;;;;28.11;38.22;100283.86;111733;1228;65233;-84
2021/08/27 09:48:41;;;;;;;10.70;5.70;;;;;;;28.12;38.16;100274.02;111683;1228;66633;-84
2021/08/27 09:51:07;;;;;;;7.10;5.60;;;;;;;28.13;38.10;100265.08;111611;1221;61129;-83
2021/08/27 09:53:50;;;;;;;9.00;6.20;;;;;;;28.13;38.17;100257.77;111519;1228;61779;-84
2021/08/27 09:56:20;;;;;;;9.70;5.70;;;;;;;28.13;38.13;100253.95;111720;1228;64914;-83
2021/08/27 09:59:00;;;;;;;8.10;5.70;;;;;;;28.15;38.32;100253.98;112089;1216;66921;-89
2021/08/27 10:01:52;;;;;;;8.40;5.80;;;;;;;28.15;38.31;100257.04;112081;1222;60997;-86
2021/08/27 10:04:21;;;;;;;8.00;5.80;;;;;;;28.15;38.12;100258.67;111956;1219;61122;-83
2021/08/27 10:06:58;;;;;;;8.10;5.50;;;;;;;28.16;38.14;100255.11;111872;1222;73810;-84
2021/08/27 10:09:53;;;;;;;7.30;5.60;;;;;;;28.16;38.12;100253.98;111689;1226;65706;-87
2021/08/27 10:12:32;;;;;;;7.50;5.70;;;;;;;28.16;38.17;100257.95;111939;1223;61018;-83
2021/08/27 10:15:08;;;;;;;9.10;6.00;;;;;;;28.17;38.09;100252.84;112074;1225;60985;-84
2021/08/27 10:17:53;;;;;;;6.80;5.30;;;;;;;28.17;38.23;100247.38;111845;1228;64814;-86
2021/08/27 10:20:41;;;;;;;8.30;5.50;;;;;;;28.17;38.25;100246.33;111610;1228;65967;-83
2021/08/27 10:23:08;;;;;;;8.90;5.10;;;;;;;28.17;38.28;100245.54;111762;1222;61018;-82
2021/08/27 10:25:34;;;;;;;7.20;5.40;;;;;;;28.18;38.31;100242.42;111865;1222;60957;-85
2021/08/27 10:28:00;;;;;;;8.30;5.30;;;;;;;28.18;37.96;100243.10;111659;1228;61204;-83
2021/08/27 10:31:04;;;;;;;7.80;5.50;;;;;;;28.19;37.94;100235.05;111753;1222;61028;-82
2021/08/27 10:33:59;;;;;;;8.10;5.80;;;;;;;28.18;38.15;100223.73;111540;1225;61008;-84
2021/08/27 10:36:34;;;;;;;7.00;5.40;;;;;;;28.19;38.15;100226.21;111145;1232;60969;-84
2021/08/27 10:39:01;;;;;;;10.40;5.50;;;;;;;28.20;38.04;100227.90;111198;1228;63885;-84
2021/08/27 10:41:39;;;;;;;6.90;5.30;;;;;;;28.20;38.00;100228.78;111154;1232;66908;-84
2021/08/27 10:44:16;;;;;;;6.80;5.30;;;;;;;28.20;37.90;100225.55;111262;1234;61025;-87
2021/08/27 10:46:48;;;;;;;7.20;5.50;;;;;;;28.20;38.10;100227.48;111220;1228;60982;-84
2021/08/27 10:49:19;;;;;;;7.40;5.40;;;;;;;28.21;38.12;100233.76;111117;1229;64827;-85
2021/08/27 10:51:46;;;;;;;8.60;5.30;;;;;;;28.21;37.96;100231.05;110999;1231;66059;-82
2021/08/27 10:54:57;;;;;;;7.60;5.30;;;;;;;28.21;38.00;100225.77;110949;1232;61005;-84
2021/08/27 10:57:25;;;;;;;7.40;5.20;;;;;;;28.20;38.15;100221.31;110848;1228;61278;-85
2021/08/27 11:00:02;;;;;;;7.80;5.60;;;;;;;28.21;38.19;100222.70;110821;1232;64583;-85
2021/08/27 11:02:51;;;;;;;6.50;5.10;;;;;;;28.22;37.95;100217.35;110853;1233;65976;-82
2021/08/27 11:05:45;;;;;;;7.90;5.60;;;;;;;28.21;38.12;100216.84;110890;1235;61063;-89
2021/08/27 11:08:30;;;;;;;8.60;5.80;;;;;;;28.22;38.13;100215.71;111335;1230;61020;-84
2021/08/27 11:11:34;;;;;;;7.70;5.70;;;;;;;28.22;38.03;100210.63;111306;1228;64799;-86
2021/08/27 11:14:15;;;;;;;6.70;5.20;;;;;;;28.22;38.05;100209.41;111170;1230;65592;-86
2021/08/27 11:16:55;;;;;;;7.20;5.30;;;;;;;28.22;38.02;100207.61;111241;1230;61248;-83
2021/08/27 11:19:30;;;;;;;8.40;5.50;;;;;;;28.22;38.03;100210.27;111352;1230;61062;-86
2021/08/27 11:22:29;;;;;;;7.90;5.90;;;;;;;28.23;37.96;100211.45;111426;1230;64535;-90
2021/08/27 11:25:26;;;;;;;6.30;5.00;;;;;;;28.23;38.06;100205.34;111294;1229;66782;-85
2021/08/27 11:28:35;;;;;;;7.40;5.30;;;;;;;28.22;38.25;100205.95;111530;1230;61085;-89
2021/08/27 11:31:07;;;;;;;8.30;5.50;;;;;;;28.22;38.33;100202.35;111302;1232;60963;-87
2021/08/27 11:33:52;;;;;;;7.50;5.30;;;;;;;28.23;38.20;100202.95;111458;1225;63634;-88
2021/08/27 11:36:38;;;;;;;6.70;5.20;;;;;;;28.23;38.25;100205.14;112218;1222;65892;-89
2021/08/27 11:39:09;;;;;;;7.40;5.40;;;;;;;28.23;38.22;100201.51;112209;1216;60998;-86
2021/08/27 11:41:38;;;;;;;7.40;5.50;;;;;;;28.23;38.19;100204.14;112214;1218;61649;-85
2021/08/27 11:44:41;;;;;;;8.60;5.40;;;;;;;28.23;38.14;100201.60;112197;1222;64705;-88
2021/08/27 11:47:23;;;;;;;;;;;;;;;;;;;;;
2021/08/27 11:50:11;;;;;;;6.90;5.40;;;;;;;28.23;38.34;100192.75;112715;1221;61681;-84
2021/08/27 11:52:43;;;;;;;8.70;5.90;;;;;;;28.24;38.05;100186.58;112700;1222;61010;-86
2021/08/27 11:55:21;;;;;;;8.10;5.40;;;;;;;28.24;38.12;100184.00;112712;1219;63842;-84
2021/08/27 11:58:22;;;;;;;8.20;5.80;;;;;;;28.25;38.13;100181.73;112700;1219;66864;-82
2021/08/27 12:01:05;;;;;;;7.60;5.40;;;;;;;28.25;38.10;100171.06;112593;1219;60945;-87
2021/08/27 12:03:50;;;;;;;7.60;5.20;;;;;;;28.25;38.09;100166.73;112710;1222;60994;-83
2021/08/27 12:06:38;;;;;;;7.30;5.40;;;;;;;28.25;38.21;100164.30;112761;1223;64842;-86
2021/08/27 12:09:12;;;;;;;6.40;5.10;;;;;;;28.26;38.16;100163.00;112197;1222;65744;-85
2021/08/27 12:11:39;;;;;;;6.60;5.30;;;;;;;28.26;38.28;100163.13;112522;1219;60989;-84
2021/08/27 12:14:51;;;;;;;6.00;4.90;;;;;;;28.27;38.33;100167.54;112740;1221;61021;-83
2021/08/27 12:17:23;;;;;;;6.10;5.20;;;;;;;28.28;38.04;100166.76;112732;1221;64936;-84
2021/08/27 12:19:53;;;;;;;6.90;5.40;;;;;;;28.29;38.22;100168.82;112720;1223;66823;-83
2021/08/27 12:22:38;;;;;;;7.10;5.10;;;;;;;28.29;38.20;100170.45;112780;1218;61000;-84
2021/08/27 12:25:27;;;;;;;8.30;5.70;;;;;;;28.30;38.19;100173.65;112734;1221;60866;-85
2021/08/27 12:27:56;;;;;;;7.70;5.50;;;;;;;28.30;38.32;100169.77;112696;1218;64662;-85
2021/08/27 12:30:31;;;;;;;;;;;;;;;28.31;38.21;100170.21;112794;1216;65863;-84